Time;durP1;ratioP1;P1;durP2;ratioP2;P2;SDS_P1;SDS_P2;PMS_P1;PMS_P2;Temp;Humidity;BMP_temperature;BMP_pressure;BME280_temperature;BME280_humidity;BME280_pressure;Samples;Min_cycle;Max_cycle;Signal;HPM_P1;HPM_P2
2019/04/14 00:01:14;;;;;;;53.7;42.6;;;;;;;;;;;;;
2019/04/14 00:03:44;;;;;;;53.6;41.1;;;;;;;;;;;;;
2019/04/14 00:05:51;;;;;;;52.6;42.9;;;;;;;;;;;;;
2019/04/14 00:08:14;;;;;;;51.5;40.9;;;;;;;;;;;;;
2019/04/14 00:10:40;;;;;;;53.2;41.9;;;;;;;;;;;;;
2019/04/14 00:13:05;;;;;;;50.5;41.2;;;;;;;;;;;;;
2019/04/14 00:15:31;;;;;;;48.2;41;;;;;;;;;;;;;
2019/04/14 00:17:56;;;;;;;49.7;40.6;;;;;;;;;;;;;
2019/04/14 00:20:21;;;;;;;54.2;43.3;;;;;;;;;;;;;
2019/04/14 00:22:47;;;;;;;58.6;45.9;;;;;;;;;;;;;
2019/04/14 00:25:12;;;;;;;51.1;42.3;;;;;;;;;;;;;
2019/04/14 00:27:37;;;;;;;53.1;43;;;;;;;;;;;;;
2019/04/14 00:30:02;;;;;;;62.6;48.5;;;;;;;;;;;;;
2019/04/14 00:32:28;;;;;;;62.4;48.8;;;;;;;;;;;;;
2019/04/14 00:35:00;;;;;;;61.1;48;;;;;;;;;;;;;
2019/04/14 00:37:33;;;;;;;59.6;47.7;;;;;;;;;;;;;
2019/04/14 00:39:49;;;;;;;61;49;;;;;;;;;;;;;
2019/04/14 00:44:44;;;;;;;62.5;51.1;;;;;;;;;;;;;
2019/04/14 00:47:07;;;;;;;68.1;52.4;;;;;;;;;;;;;
2019/04/14 00:49:26;;;;;;;63;50.3;;;;;;;;;;;;;
2019/04/14 00:51:51;;;;;;;72.6;54.7;;;;;;;;;;;;;
2019/04/14 00:54:16;;;;;;;64.5;49.7;;;;;;;;;;;;;
2019/04/14 00:56:41;;;;;;;68.6;51.5;;;;;;;;;;;;;
2019/04/14 00:59:07;;;;;;;67.7;51.9;;;;;;;;;;;;;
2019/04/14 01:01:32;;;;;;;73.7;55.5;;;;;;;;;;;;;
2019/04/14 01:03:57;;;;;;;70.2;53.2;;;;;;;;;;;;;
2019/04/14 01:06:22;;;;;;;74.5;54.2;;;;;;;;;;;;;
2019/04/14 01:08:47;;;;;;;66.1;51.3;;;;;;;;;;;;;
2019/04/14 01:11:12;;;;;;;68;52.4;;;;;;;;;;;;;
2019/04/14 01:13:37;;;;;;;73;55.3;;;;;;;;;;;;;
2019/04/14 01:16:03;;;;;;;70.9;54.2;;;;;;;;;;;;;
2019/04/14 01:18:28;;;;;;;68.9;53.3;;;;;;;;;;;;;
2019/04/14 01:20:53;;;;;;;69.4;52.3;;;;;;;;;;;;;
2019/04/14 01:23:18;;;;;;;65.8;51.6;;;;;;;;;;;;;
2019/04/14 01:25:43;;;;;;;81.7;59.1;;;;;;;;;;;;;
2019/04/14 01:28:08;;;;;;;72.9;56.5;;;;;;;;;;;;;
2019/04/14 01:30:33;;;;;;;66.7;51.9;;;;;;;;;;;;;
2019/04/14 01:32:58;;;;;;;69.5;53.7;;;;;;;;;;;;;
2019/04/14 01:35:24;;;;;;;65.1;51;;;;;;;;;;;;;
2019/04/14 01:37:49;;;;;;;63.5;50.9;;;;;;;;;;;;;
2019/04/14 01:40:14;;;;;;;66.9;52.5;;;;;;;;;;;;;
2019/04/14 01:42:39;;;;;;;65.2;51.6;;;;;;;;;;;;;
2019/04/14 01:45:04;;;;;;;68.2;52.8;;;;;;;;;;;;;
2019/04/14 01:47:32;;;;;;;73.4;54.6;;;;;;;;;;;;;
2019/04/14 01:49:56;;;;;;;75.8;56.5;;;;;;;;;;;;;
2019/04/14 01:52:32;;;;;;;73.9;55.8;;;;;;;;;;;;;
2019/04/14 01:55:05;;;;;;;77.4;56.6;;;;;;;;;;;;;
2019/04/14 01:57:22;;;;;;;75.6;56.4;;;;;;;;;;;;;
2019/04/14 01:59:37;;;;;;;81.4;58;;;;;;;;;;;;;
2019/04/14 02:02:03;;;;;;;72;53.4;;;;;;;;;;;;;
2019/04/14 02:04:28;;;;;;;74.7;56.3;;;;;;;;;;;;;
2019/04/14 02:06:53;;;;;;;90.1;61.4;;;;;;;;;;;;;
2019/04/14 02:09:18;;;;;;;84.5;59.9;;;;;;;;;;;;;
2019/04/14 02:11:45;;;;;;;73.2;53.8;;;;;;;;;;;;;
2019/04/14 02:14:10;;;;;;;70.7;54.6;;;;;;;;;;;;;
2019/04/14 02:16:35;;;;;;;65.3;52;;;;;;;;;;;;;
2019/04/14 02:19:01;;;;;;;70;54.6;;;;;;;;;;;;;
2019/04/14 02:21:26;;;;;;;65.9;51.3;;;;;;;;;;;;;
2019/04/14 02:23:51;;;;;;;67.8;52.9;;;;;;;;;;;;;
2019/04/14 02:26:18;;;;;;;81.3;58.9;;;;;;;;;;;;;
2019/04/14 02:28:43;;;;;;;78;58.6;;;;;;;;;;;;;
2019/04/14 02:31:08;;;;;;;87.4;62;;;;;;;;;;;;;
2019/04/14 02:33:33;;;;;;;77;58.5;;;;;;;;;;;;;
2019/04/14 02:35:59;;;;;;;84.9;62.2;;;;;;;;;;;;;
2019/04/14 02:38:24;;;;;;;79.2;60;;;;;;;;;;;;;
2019/04/14 02:40:49;;;;;;;85.6;61.9;;;;;;;;;;;;;
2019/04/14 02:43:14;;;;;;;86.8;62.2;;;;;;;;;;;;;
2019/04/14 02:45:39;;;;;;;94.4;66.5;;;;;;;;;;;;;
2019/04/14 02:48:05;;;;;;;87.1;64.3;;;;;;;;;;;;;
2019/04/14 02:50:30;;;;;;;84.4;62.4;;;;;;;;;;;;;
2019/04/14 02:52:55;;;;;;;87;63.5;;;;;;;;;;;;;
2019/04/14 02:55:20;;;;;;;84.6;63.1;;;;;;;;;;;;;
2019/04/14 02:57:46;;;;;;;85.1;63;;;;;;;;;;;;;
2019/04/14 03:00:11;;;;;;;89.7;64;;;;;;;;;;;;;
2019/04/14 03:02:37;;;;;;;86.1;63.4;;;;;;;;;;;;;
2019/04/14 03:05:02;;;;;;;86;62.6;;;;;;;;;;;;;
2019/04/14 03:07:27;;;;;;;85.1;62.1;;;;;;;;;;;;;
2019/04/14 03:09:52;;;;;;;85.1;63.8;;;;;;;;;;;;;
2019/04/14 03:12:17;;;;;;;90.3;66;;;;;;;;;;;;;
2019/04/14 03:14:42;;;;;;;89.1;66.6;;;;;;;;;;;;;
2019/04/14 03:29:34;;;;;;;87.6;64.5;;;;;;;;;;;;;
2019/04/14 03:31:54;;;;;;;89.1;65.8;;;;;;;;;;;;;
2019/04/14 03:34:19;;;;;;;92.1;66.1;;;;;;;;;;;;;
2019/04/14 03:36:44;;;;;;;95.3;67.9;;;;;;;;;;;;;
2019/04/14 03:39:09;;;;;;;88.6;65.2;;;;;;;;;;;;;
2019/04/14 03:41:36;;;;;;;91.5;66.7;;;;;;;;;;;;;
2019/04/14 03:44:01;;;;;;;95.3;69.7;;;;;;;;;;;;;
2019/04/14 03:46:27;;;;;;;86.7;63.8;;;;;;;;;;;;;
2019/04/14 03:48:52;;;;;;;92.5;65.7;;;;;;;;;;;;;
2019/04/14 03:51:17;;;;;;;96.6;68.5;;;;;;;;;;;;;
2019/04/14 03:53:42;;;;;;;99.5;70.1;;;;;;;;;;;;;
2019/04/14 03:56:24;;;;;;;97.5;69;;;;;;;;;;;;;
2019/04/14 03:58:49;;;;;;;96.4;67.1;;;;;;;;;;;;;
2019/04/14 04:02:30;;;;;;;94.4;67.7;;;;;;;4.22;81.54688;935.5058;;;;
2019/04/14 04:04:55;;;;;;;97;67.1;;;;;;;3.99;82.82813;935.4592;;;;
2019/04/14 04:07:20;;;;;;;92.9;66.5;;;;;;;4.21;82.11816;935.5235;;;;
2019/04/14 04:09:53;;;;;;;91.7;65.7;;;;;;;4.22;81.66992;935.4805;;;;
2019/04/14 04:12:12;;;;;;;90;65.8;;;;;;;4.08;82.71094;935.533;;;;
2019/04/14 04:14:37;;;;;;;91.1;66.7;;;;;;;4.26;81.59863;935.5156;;;;
2019/04/14 04:17:14;;;;;;;90.8;65.5;;;;;;;4.43;81.00098;935.4275;;;;
2019/04/14 04:19:52;;;;;;;94.8;67.5;;;;;;;4.12;82.29102;935.5341;;;;
2019/04/14 04:27:04;;;;;;;92.4;66.2;;;;;;;4.15;82.92773;935.6075;;;;
2019/04/14 04:36:11;;;;;;;90.6;65.8;;;;;;;4.19;82.7793;935.655;;;;
2019/04/14 04:38:43;;;;;;;95.7;66.1;;;;;;;4.13;83.07031;935.7014;;;;
2019/04/14 04:40:54;;;;;;;92.2;65.1;;;;;;;4.01;83.93555;935.7861;;;;
2019/04/14 04:43:20;;;;;;;91.1;65.6;;;;;;;4.03;83.37891;935.738;;;;
2019/04/14 04:45:45;;;;;;;94.6;66.1;;;;;;;;;;;;;
2019/04/14 04:48:10;;;;;;;90.9;66.7;;;;;;;;;;;;;
2019/04/14 04:50:35;;;;;;;95.4;68.1;;;;;;;;;;;;;
2019/04/14 04:53:00;;;;;;;101.6;69.5;;;;;;;;;;;;;
2019/04/14 04:55:25;;;;;;;94.6;68.8;;;;;;;;;;;;;
2019/04/14 04:57:50;;;;;;;93.1;66.3;;;;;;;;;;;;;
2019/04/14 05:00:17;;;;;;;94.9;67.6;;;;;;;;;;;;;
2019/04/14 05:02:44;;;;;;;99.1;70.8;;;;;;;;;;;;;
2019/04/14 05:05:07;;;;;;;95.8;68.8;;;;;;;;;;;;;
2019/04/14 05:07:32;;;;;;;96.1;68.6;;;;;;;;;;;;;
2019/04/14 05:10:10;;;;;;;98.9;68.9;;;;;;;;;;;;;
2019/04/14 05:14:53;;;;;;;94;66;;;;;;;;;;;;;
2019/04/14 05:17:13;;;;;;;91.7;64.8;;;;;;;;;;;;;
2019/04/14 05:19:40;;;;;;;86.7;62;;;;;;;;;;;;;
2019/04/14 05:22:05;;;;;;;82.7;62.4;;;;;;;;;;;;;
2019/04/14 05:24:30;;;;;;;86.8;64.5;;;;;;;;;;;;;
2019/04/14 05:26:58;;;;;;;87.1;63.6;;;;;;;;;;;;;
2019/04/14 05:29:21;;;;;;;86.2;62.2;;;;;;;;;;;;;
2019/04/14 05:31:46;;;;;;;84.8;61.3;;;;;;;;;;;;;
2019/04/14 05:34:11;;;;;;;81.6;60.9;;;;;;;;;;;;;
2019/04/14 05:36:37;;;;;;;84;61.6;;;;;;;;;;;;;
2019/04/14 05:39:02;;;;;;;80.9;60.1;;;;;;;;;;;;;
2019/04/14 05:41:27;;;;;;;80.8;60.6;;;;;;;;;;;;;
2019/04/14 05:43:52;;;;;;;81.6;60.7;;;;;;;;;;;;;
2019/04/14 05:46:17;;;;;;;86.6;62;;;;;;;;;;;;;
2019/04/14 05:48:44;;;;;;;80.5;60.5;;;;;;;;;;;;;
2019/04/14 05:51:09;;;;;;;80.3;59.2;;;;;;;;;;;;;
2019/04/14 05:53:34;;;;;;;81;60.8;;;;;;;;;;;;;
2019/04/14 05:55:59;;;;;;;80.7;59.8;;;;;;;;;;;;;
2019/04/14 05:58:24;;;;;;;78.7;59.6;;;;;;;;;;;;;
2019/04/14 06:00:50;;;;;;;79;59.7;;;;;;;;;;;;;
2019/04/14 06:03:15;;;;;;;82.8;61.3;;;;;;;;;;;;;
2019/04/14 06:05:40;;;;;;;77.2;57.5;;;;;;;;;;;;;
2019/04/14 06:08:05;;;;;;;76.5;57.6;;;;;;;;;;;;;
2019/04/14 06:10:30;;;;;;;72.7;55.2;;;;;;;;;;;;;
2019/04/14 06:12:56;;;;;;;76.1;57.1;;;;;;;;;;;;;
2019/04/14 06:15:21;;;;;;;77.1;57;;;;;;;;;;;;;
2019/04/14 06:17:46;;;;;;;78.6;58.6;;;;;;;;;;;;;
2019/04/14 06:20:11;;;;;;;84.2;61;;;;;;;;;;;;;
2019/04/14 06:22:37;;;;;;;83.1;60.8;;;;;;;;;;;;;
2019/04/14 06:25:02;;;;;;;89.2;64;;;;;;;;;;;;;
2019/04/14 06:27:27;;;;;;;88.2;64;;;;;;;;;;;;;
2019/04/14 06:29:54;;;;;;;83.5;62;;;;;;;;;;;;;
2019/04/14 06:35:08;;;;;;;88;64.9;;;;;;;;;;;;;
2019/04/14 06:37:22;;;;;;;81.2;60.4;;;;;;;;;;;;;
2019/04/14 06:39:37;;;;;;;81.8;61.5;;;;;;;;;;;;;
2019/04/14 06:41:59;;;;;;;79.7;61;;;;;;;;;;;;;
2019/04/14 06:44:24;;;;;;;82.5;61.6;;;;;;;;;;;;;
2019/04/14 06:46:49;;;;;;;82.6;60.6;;;;;;;;;;;;;
2019/04/14 06:49:16;;;;;;;76.5;58.8;;;;;;;;;;;;;
2019/04/14 06:51:40;;;;;;;80.5;61.8;;;;;;;;;;;;;
2019/04/14 06:54:06;;;;;;;76.1;58.6;;;;;;;;;;;;;
2019/04/14 06:56:31;;;;;;;81.3;60.6;;;;;;;;;;;;;
2019/04/14 06:58:56;;;;;;;80;60.5;;;;;;;;;;;;;
2019/04/14 07:01:22;;;;;;;83.6;61.2;;;;;;;;;;;;;
2019/04/14 07:03:47;;;;;;;80.5;59.9;;;;;;;;;;;;;
2019/04/14 07:06:12;;;;;;;80.1;59.5;;;;;;;;;;;;;
2019/04/14 07:08:40;;;;;;;82.7;61.7;;;;;;;;;;;;;
2019/04/14 07:11:05;;;;;;;81.4;61.8;;;;;;;;;;;;;
2019/04/14 07:13:30;;;;;;;76.2;58.9;;;;;;;;;;;;;
2019/04/14 07:15:55;;;;;;;78.5;59.7;;;;;;;;;;;;;
2019/04/14 07:18:20;;;;;;;80.9;60;;;;;;;;;;;;;
2019/04/14 07:20:45;;;;;;;79.6;60;;;;;;;;;;;;;
2019/04/14 07:23:10;;;;;;;81.4;60.3;;;;;;;;;;;;;
2019/04/14 07:25:35;;;;;;;79.4;59.4;;;;;;;;;;;;;
2019/04/14 07:28:00;;;;;;;80.8;60.5;;;;;;;;;;;;;
2019/04/14 07:30:46;;;;;;;77.2;59.3;;;;;;;;;;;;;
2019/04/14 07:33:15;;;;;;;81.3;62.6;;;;;;;;;;;;;
2019/04/14 07:35:43;;;;;;;82.5;62;;;;;;;;;;;;;
2019/04/14 07:40:20;;;;;;;80.4;60.8;;;;;;;;;;;;;
2019/04/14 07:42:43;;;;;;;84.5;63.1;;;;;;;;;;;;;
2019/04/14 07:45:10;;;;;;;81.9;60.9;;;;;;;;;;;;;
2019/04/14 07:49:58;;;;;;;78.2;60.2;;;;;;;;;;;;;
2019/04/14 07:52:30;;;;;;;78.6;60.5;;;;;;;;;;;;;
2019/04/14 07:54:45;;;;;;;79.2;59.7;;;;;;;;;;;;;
2019/04/14 07:58:23;;;;;;;80.6;60.9;;;;;;;;;;;;;
2019/04/14 08:00:48;;;;;;;78.9;58.8;;;;;;;;;;;;;
2019/04/14 08:01:56;;;;;;;78.8;60.1;;;;;;;;;;;;;
2019/04/14 08:04:25;;;;;;;80.2;59.9;;;;;;;;;;;;;
2019/04/14 08:06:47;;;;;;;78.1;59;;;;;;;;;;;;;
2019/04/14 08:09:08;;;;;;;79.4;60;;;;;;;;;;;;;
2019/04/14 08:11:33;;;;;;;82.4;62.1;;;;;;;;;;;;;
2019/04/14 08:13:58;;;;;;;76.7;59.9;;;;;;;;;;;;;
2019/04/14 08:16:26;;;;;;;80;61.2;;;;;;;;;;;;;
2019/04/14 08:18:49;;;;;;;79.6;59.8;;;;;;;;;;;;;
2019/04/14 08:21:14;;;;;;;82.7;60.6;;;;;;;;;;;;;
2019/04/14 08:23:39;;;;;;;76.4;58;;;;;;;;;;;;;
2019/04/14 08:26:05;;;;;;;77.2;59.3;;;;;;;;;;;;;
2019/04/14 08:28:30;;;;;;;83.1;60.5;;;;;;;;;;;;;
2019/04/14 08:30:56;;;;;;;76.7;59.3;;;;;;;;;;;;;
2019/04/14 08:33:21;;;;;;;75.8;57.6;;;;;;;;;;;;;
2019/04/14 08:35:47;;;;;;;76.4;57.6;;;;;;;;;;;;;
2019/04/14 08:38:13;;;;;;;74.6;57;;;;;;;;;;;;;
2019/04/14 08:40:39;;;;;;;75.8;58.6;;;;;;;;;;;;;
2019/04/14 08:45:56;;;;;;;76;58.7;;;;;;;;;;;;;
2019/04/14 08:48:19;;;;;;;78.8;56.6;;;;;;;;;;;;;
2019/04/14 08:50:46;;;;;;;71.4;55.2;;;;;;;;;;;;;
2019/04/14 08:53:08;;;;;;;69.7;54.6;;;;;;;;;;;;;
2019/04/14 08:55:43;;;;;;;75.7;57;;;;;;;;;;;;;
2019/04/14 08:58:18;;;;;;;72.4;55.9;;;;;;;;;;;;;
2019/04/14 09:00:30;;;;;;;72.2;55.7;;;;;;;;;;;;;
2019/04/14 09:03:40;;;;;;;69.8;54.1;;;;;;;;;;;;;
2019/04/14 09:05:48;;;;;;;68.6;53;;;;;;;;;;;;;
2019/04/14 09:07:48;;;;;;;66.3;52.7;;;;;;;;;;;;;
2019/04/14 09:10:06;;;;;;;66.1;52.3;;;;;;;;;;;;;
2019/04/14 09:12:26;;;;;;;65.8;52.3;;;;;;;;;;;;;
2019/04/14 09:14:46;;;;;;;69.3;52.5;;;;;;;;;;;;;
2019/04/14 09:17:11;;;;;;;65.4;52.4;;;;;;;;;;;;;
2019/04/14 09:19:36;;;;;;;69.2;52.4;;;;;;;;;;;;;
2019/04/14 09:22:02;;;;;;;70.9;53.2;;;;;;;;;;;;;
2019/04/14 09:24:27;;;;;;;65;50.8;;;;;;;;;;;;;
2019/04/14 09:26:52;;;;;;;65.8;50.9;;;;;;;;;;;;;
2019/04/14 09:29:21;;;;;;;64.3;50.4;;;;;;;;;;;;;
2019/04/14 09:31:43;;;;;;;64.8;50.3;;;;;;;;;;;;;
2019/04/14 09:34:08;;;;;;;63.6;51;;;;;;;;;;;;;
2019/04/14 09:36:33;;;;;;;60.9;48.7;;;;;;;;;;;;;
2019/04/14 09:38:59;;;;;;;62.4;49.1;;;;;;;;;;;;;
2019/04/14 09:41:24;;;;;;;62.5;49.5;;;;;;;;;;;;;
2019/04/14 09:43:49;;;;;;;65.5;48.5;;;;;;;;;;;;;
2019/04/14 09:46:15;;;;;;;63.2;49.5;;;;;;;;;;;;;
2019/04/14 09:48:43;;;;;;;62;49.3;;;;;;;;;;;;;
2019/04/14 09:51:05;;;;;;;63.5;49.8;;;;;;;;;;;;;
2019/04/14 09:53:31;;;;;;;62.5;49.2;;;;;;;;;;;;;
2019/04/14 09:55:56;;;;;;;63.7;50.5;;;;;;;;;;;;;
2019/04/14 11:09:40;;;;;;;60.7;48.8;;;;;;;;;;;;;
2019/04/14 11:12:06;;;;;;;61.4;48.5;;;;;;;;;;;;;
2019/04/14 11:14:32;;;;;;;60.5;47.6;;;;;;;;;;;;;
2019/04/14 11:16:57;;;;;;;59.9;47.5;;;;;;;;;;;;;
2019/04/14 11:19:23;;;;;;;63.5;49;;;;;;;;;;;;;
2019/04/14 11:21:48;;;;;;;61.7;49;;;;;;;;;;;;;
2019/04/14 11:24:15;;;;;;;60.9;48;;;;;;;;;;;;;
2019/04/14 11:26:38;;;;;;;57.9;46.2;;;;;;;;;;;;;
2019/04/14 11:29:04;;;;;;;56.1;45.8;;;;;;;;;;;;;
2019/04/14 11:31:49;;;;;;;59.1;47.6;;;;;;;;;;;;;
2019/04/14 11:34:03;;;;;;;55.1;45.5;;;;;;;;;;;;;
2019/04/14 11:37:48;;;;;;;54.4;44.1;;;;;;;;;;;;;
2019/04/14 11:39:05;;;;;;;55.6;43.9;;;;;;;;;;;;;
2019/04/14 11:41:21;;;;;;;54.6;45;;;;;;;;;;;;;
2019/04/14 11:43:47;;;;;;;53.6;44.4;;;;;;;;;;;;;
2019/04/14 11:46:09;;;;;;;60.1;46.1;;;;;;;;;;;;;
2019/04/14 11:48:34;;;;;;;61.8;46.3;;;;;;;;;;;;;
2019/04/14 11:50:59;;;;;;;59.7;47.4;;;;;;;;;;;;;
2019/04/14 11:53:28;;;;;;;58.7;45.9;;;;;;;;;;;;;
2019/04/14 11:55:53;;;;;;;55.1;43.5;;;;;;;;;;;;;
2019/04/14 11:58:19;;;;;;;54.5;43.4;;;;;;;;;;;;;
2019/04/14 12:06:25;;;;;;;55.3;45.1;;;;;;;;;;;;;
2019/04/14 12:08:11;;;;;;;53.2;43.7;;;;;;;;;;;;;
2019/04/14 12:10:28;;;;;;;54;44.2;;;;;;;;;;;;;
2019/04/14 12:12:50;;;;;;;54.4;43.3;;;;;;;;;;;;;
2019/04/14 12:15:15;;;;;;;55.1;45.6;;;;;;;;;;;;;
2019/04/14 12:17:40;;;;;;;56.9;45.7;;;;;;;;;;;;;
2019/04/14 12:20:05;;;;;;;55;45.5;;;;;;;;;;;;;
2019/04/14 12:22:30;;;;;;;55.5;45.8;;;;;;;;;;;;;
2019/04/14 12:24:55;;;;;;;56.9;45.6;;;;;;;;;;;;;
2019/04/14 12:27:20;;;;;;;56.9;45.4;;;;;;;;;;;;;
2019/04/14 12:29:48;;;;;;;58.9;46.1;;;;;;;;;;;;;
2019/04/14 12:32:11;;;;;;;57.6;46.5;;;;;;;;;;;;;
2019/04/14 12:34:39;;;;;;;50.8;42.8;;;;;;;;;;;;;
2019/04/14 12:37:02;;;;;;;54;43.5;;;;;;;;;;;;;
2019/04/14 12:39:27;;;;;;;56.8;46.6;;;;;;;;;;;;;
2019/04/14 12:46:58;;;;;;;63.2;48.8;;;;;;;;;;;;;
2019/04/14 12:49:13;;;;;;;55.9;45.8;;;;;;;;;;;;;
2019/04/14 12:51:39;;;;;;;54.2;44;;;;;;;;;;;;;
2019/04/14 12:53:58;;;;;;;59.1;47.5;;;;;;;;;;;;;
2019/04/14 12:56:26;;;;;;;59.6;46.7;;;;;;;;;;;;;
2019/04/14 13:01:15;;;;;;;58.1;46.1;;;;;;;;;;;;;
2019/04/14 13:03:41;;;;;;;56.1;44.9;;;;;;;;;;;;;
2019/04/14 13:06:06;;;;;;;51.7;43.4;;;;;;;;;;;;;
2019/04/14 13:08:31;;;;;;;80.1;55.1;;;;;;;;;;;;;
2019/04/14 13:10:56;;;;;;;210.1;102.9;;;;;;;;;;;;;
2019/04/14 13:13:21;;;;;;;133.8;75.9;;;;;;;;;;;;;
2019/04/14 13:15:46;;;;;;;81;54.7;;;;;;;;;;;;;
2019/04/14 13:18:11;;;;;;;86.2;58.5;;;;;;;;;;;;;
2019/04/14 13:20:37;;;;;;;60.9;48;;;;;;;;;;;;;
2019/04/14 13:23:02;;;;;;;61.3;50.6;;;;;;;;;;;;;
2019/04/14 13:25:27;;;;;;;61.9;49.4;;;;;;;;;;;;;
2019/04/14 13:27:52;;;;;;;58.1;47.1;;;;;;;;;;;;;
2019/04/14 13:30:20;;;;;;;62.2;50.4;;;;;;;;;;;;;
2019/04/14 13:32:42;;;;;;;65.1;51;;;;;;;;;;;;;
2019/04/14 13:35:08;;;;;;;63.3;50.2;;;;;;;;;;;;;
2019/04/14 13:37:33;;;;;;;60.5;49.5;;;;;;;;;;;;;
2019/04/14 13:39:58;;;;;;;63.6;49.9;;;;;;;;;;;;;
2019/04/14 13:42:23;;;;;;;65;48.3;;;;;;;;;;;;;
2019/04/14 13:44:48;;;;;;;65;51.2;;;;;;;;;;;;;
2019/04/14 13:47:14;;;;;;;62.6;50.4;;;;;;;;;;;;;
2019/04/14 13:49:39;;;;;;;65.5;51.3;;;;;;;;;;;;;
2019/04/14 13:52:04;;;;;;;62.4;49.2;;;;;;;;;;;;;
2019/04/14 13:54:29;;;;;;;62.8;49.5;;;;;;;;;;;;;
2019/04/14 13:56:54;;;;;;;61;49.7;;;;;;;;;;;;;
2019/04/14 13:59:20;;;;;;;65.9;51.2;;;;;;;;;;;;;
2019/04/14 14:01:45;;;;;;;61.7;49.7;;;;;;;;;;;;;
2019/04/14 14:04:10;;;;;;;69.1;52.4;;;;;;;;;;;;;
2019/04/14 14:06:36;;;;;;;65.6;50.6;;;;;;;;;;;;;
2019/04/14 14:09:01;;;;;;;68.1;53.6;;;;;;;;;;;;;
2019/04/14 14:11:32;;;;;;;64.6;50.5;;;;;;;;;;;;;
2019/04/14 14:13:57;;;;;;;66.7;52;;;;;;;;;;;;;
2019/04/14 14:16:31;;;;;;;68;52.8;;;;;;;;;;;;;
2019/04/14 14:19:24;;;;;;;65.1;51;;;;;;;;;;;;;
2019/04/14 14:30:22;;;;;;;67.2;52.8;;;;;;;;;;;;;
2019/04/14 14:32:47;;;;;;;65.9;54.3;;;;;;;;;;;;;
2019/04/14 14:35:12;;;;;;;88.8;70;;;;;;;;;;;;;
2019/04/14 14:37:37;;;;;;;67.6;55.4;;;;;;;;;;;;;
2019/04/14 14:40:02;;;;;;;73.8;59;;;;;;;;;;;;;
2019/04/14 14:42:27;;;;;;;86.4;69.1;;;;;;;;;;;;;
2019/04/14 14:45:13;;;;;;;71.3;56.2;;;;;;;;;;;;;
2019/04/14 14:47:22;;;;;;;98.9;83.8;;;;;;;;;;;;;
2019/04/14 14:52:10;;;;;;;157.3;104.3;;;;;;;;;;;;;
2019/04/14 14:54:32;;;;;;;195.9;143.6;;;;;;;;;;;;;
2019/04/14 14:57:09;;;;;;;105.9;78.8;;;;;;;;;;;;;
2019/04/14 14:59:41;;;;;;;83.2;65.3;;;;;;;;;;;;;
2019/04/14 15:02:06;;;;;;;87.7;68;;;;;;;;;;;;;
2019/04/14 15:04:31;;;;;;;68.2;52;;;;;;;;;;;;;
2019/04/14 15:06:56;;;;;;;78.6;59.7;;;;;;;;;;;;;
2019/04/14 15:09:21;;;;;;;98.2;75.4;;;;;;;;;;;;;
2019/04/14 15:11:47;;;;;;;70;53.5;;;;;;;;;;;;;
2019/04/14 15:14:12;;;;;;;114.8;93.6;;;;;;;;;;;;;
2019/04/14 15:16:37;;;;;;;70.7;53.7;;;;;;;;;;;;;
2019/04/14 15:19:02;;;;;;;67.8;50.8;;;;;;;;;;;;;
2019/04/14 15:21:27;;;;;;;67.1;53.9;;;;;;;;;;;;;
2019/04/14 15:23:52;;;;;;;75.7;53;;;;;;;;;;;;;
2019/04/14 15:26:18;;;;;;;76.3;55.6;;;;;;;;;;;;;
2019/04/14 15:28:43;;;;;;;81.1;63.4;;;;;;;;;;;;;
2019/04/14 15:31:08;;;;;;;87.6;67.2;;;;;;;;;;;;;
2019/04/14 15:33:33;;;;;;;71.7;53.6;;;;;;;;;;;;;
2019/04/14 15:35:58;;;;;;;84.3;65.6;;;;;;;;;;;;;
2019/04/14 15:38:24;;;;;;;70.2;55.7;;;;;;;;;;;;;
2019/04/14 15:40:49;;;;;;;68.2;54.7;;;;;;;;;;;;;
2019/04/14 15:43:14;;;;;;;72.9;53.8;;;;;;;;;;;;;
2019/04/14 15:45:39;;;;;;;70.5;54.2;;;;;;;;;;;;;
2019/04/14 15:48:04;;;;;;;75.2;55.5;;;;;;;;;;;;;
2019/04/14 15:50:29;;;;;;;79.5;57.5;;;;;;;;;;;;;
2019/04/14 15:52:54;;;;;;;89.9;67.4;;;;;;;;;;;;;
2019/04/14 15:55:20;;;;;;;97.2;77.3;;;;;;;;;;;;;
2019/04/14 15:57:54;;;;;;;88.7;65.3;;;;;;;;;;;;;
2019/04/14 16:07:08;;;;;;;138;114.3;;;;;;;;;;;;;
2019/04/14 16:09:34;;;;;;;73.5;56.1;;;;;;;;;;;;;
2019/04/14 16:11:59;;;;;;;84.4;64.5;;;;;;;;;;;;;
2019/04/14 16:17:08;;;;;;;72.8;54.5;;;;;;;;;;;;;
2019/04/14 16:19:11;;;;;;;71.8;55.9;;;;;;;;;;;;;
2019/04/14 16:21:31;;;;;;;71.7;54.9;;;;;;;;;;;;;
2019/04/14 16:23:56;;;;;;;79.4;57;;;;;;;;;;;;;
2019/04/14 16:26:32;;;;;;;84.6;61.3;;;;;;;;;;;;;
2019/04/14 16:28:53;;;;;;;83.8;66.4;;;;;;;;;;;;;
2019/04/14 16:31:25;;;;;;;79.5;58.5;;;;;;;;;;;;;
2019/04/14 16:34:14;;;;;;;80.5;61.1;;;;;;;;;;;;;
2019/04/14 16:36:03;;;;;;;87.1;68.7;;;;;;;;;;;;;
2019/04/14 16:38:28;;;;;;;90.8;67.4;;;;;;;;;;;;;
2019/04/14 16:40:54;;;;;;;80.5;60.2;;;;;;;;;;;;;
2019/04/14 16:43:19;;;;;;;77;60.3;;;;;;;;;;;;;
2019/04/14 16:45:44;;;;;;;83.7;61.7;;;;;;;;;;;;;
2019/04/14 16:48:09;;;;;;;79.9;58.3;;;;;;;;;;;;;
2019/04/14 16:50:35;;;;;;;98.7;70.6;;;;;;;;;;;;;
2019/04/14 16:53:35;;;;;;;87.9;64.7;;;;;;;;;;;;;
2019/04/14 16:55:43;;;;;;;89.5;65.8;;;;;;;;;;;;;
2019/04/14 17:00:21;;;;;;;104.7;81.5;;;;;;;;;;;;;
2019/04/14 17:02:41;;;;;;;118;97.1;;;;;;;;;;;;;
2019/04/14 17:05:07;;;;;;;88.8;68.7;;;;;;;;;;;;;
2019/04/14 17:07:32;;;;;;;87.7;70.3;;;;;;;;;;;;;
2019/04/14 17:09:57;;;;;;;101.2;83.3;;;;;;;;;;;;;
2019/04/14 17:12:22;;;;;;;85.4;67.3;;;;;;;;;;;;;
2019/04/14 17:14:54;;;;;;;88;71.4;;;;;;;;;;;;;
2019/04/14 17:19:57;;;;;;;87.2;60.5;;;;;;;;;;;;;
2019/04/14 17:22:20;;;;;;;74.7;57.8;;;;;;;;;;;;;
2019/04/14 17:25:00;;;;;;;75.4;57.9;;;;;;;;;;;;;
2019/04/14 17:27:01;;;;;;;74.2;56.9;;;;;;;;;;;;;
2019/04/14 17:29:39;;;;;;;80.1;62;;;;;;;;;;;;;
2019/04/14 17:39:48;;;;;;;79.9;64.6;;;;;;;;;;;;;
2019/04/14 17:42:22;;;;;;;71.3;54.7;;;;;;;;;;;;;
2019/04/14 17:44:40;;;;;;;76.8;57.9;;;;;;;;;;;;;
2019/04/14 17:47:08;;;;;;;76.2;58;;;;;;;;;;;;;
2019/04/14 17:56:29;;;;;;;83;63.2;;;;;;;;;;;;;
2019/04/14 18:03:33;;;;;;;142.8;101.2;;;;;;;;;;;;;
2019/04/14 18:05:56;;;;;;;81.2;60;;;;;;;;;;;;;
2019/04/14 18:11:24;;;;;;;86;62.3;;;;;;;;;;;;;
2019/04/14 18:15:40;;;;;;;91.6;71.6;;;;;;;;;;;;;
2019/04/14 18:18:22;;;;;;;80.8;62.3;;;;;;;;;;;;;
2019/04/14 18:20:32;;;;;;;89.3;67.1;;;;;;;;;;;;;
2019/04/14 18:22:50;;;;;;;96.6;71;;;;;;;;;;;;;
2019/04/14 18:25:15;;;;;;;95.1;69;;;;;;;;;;;;;
2019/04/14 18:27:57;;;;;;;91.8;69.4;;;;;;;;;;;;;
2019/04/14 18:30:14;;;;;;;85.2;61.8;;;;;;;;;;;;;
2019/04/14 18:32:38;;;;;;;96.7;72;;;;;;;;;;;;;
2019/04/14 18:35:07;;;;;;;97.1;66.6;;;;;;;;;;;;;
2019/04/14 18:37:30;;;;;;;84.5;60.7;;;;;;;;;;;;;
2019/04/14 18:39:54;;;;;;;76.6;57.5;;;;;;;;;;;;;
2019/04/14 18:42:59;;;;;;;83.5;60.5;;;;;;;;;;;;;
2019/04/14 18:45:36;;;;;;;82.5;60.5;;;;;;;;;;;;;
2019/04/14 18:47:14;;;;;;;102.4;70.1;;;;;;;;;;;;;
2019/04/14 18:49:37;;;;;;;80.3;59.5;;;;;;;;;;;;;
2019/04/14 18:55:13;;;;;;;89.7;65.1;;;;;;;;;;;;;
2019/04/14 18:56:49;;;;;;;84.6;60.4;;;;;;;;;;;;;
2019/04/14 19:01:36;;;;;;;84;60.2;;;;;;;;;;;;;
2019/04/14 19:03:58;;;;;;;78.2;58.9;;;;;;;;;;;;;
2019/04/14 19:06:23;;;;;;;92.9;62.7;;;;;;;;;;;;;
2019/04/14 19:08:48;;;;;;;93.1;63.7;;;;;;;;;;;;;
2019/04/14 19:11:30;;;;;;;87.4;62.7;;;;;;;;;;;;;
2019/04/14 19:13:39;;;;;;;80.8;60;;;;;;;;;;;;;
2019/04/14 19:16:13;;;;;;;81.2;59.4;;;;;;;;;;;;;
2019/04/14 19:18:41;;;;;;;77.2;58.7;;;;;;;;;;;;;
2019/04/14 19:21:05;;;;;;;75.7;56.9;;;;;;;;;;;;;
2019/04/14 19:23:25;;;;;;;74.5;57.3;;;;;;;;;;;;;
2019/04/14 19:25:50;;;;;;;76.1;57.3;;;;;;;;;;;;;
2019/04/14 19:28:15;;;;;;;82.6;61.3;;;;;;;;;;;;;
2019/04/14 19:30:40;;;;;;;79.1;59.1;;;;;;;;;;;;;
2019/04/14 19:33:09;;;;;;;79.5;59.8;;;;;;;;;;;;;
2019/04/14 19:35:35;;;;;;;78.5;60;;;;;;;;;;;;;
2019/04/14 19:38:00;;;;;;;83.6;63.9;;;;;;;;;;;;;
2019/04/14 19:40:25;;;;;;;82.6;60.7;;;;;;;;;;;;;
2019/04/14 19:42:50;;;;;;;105.4;73.4;;;;;;;;;;;;;
2019/04/14 19:45:16;;;;;;;90.6;63.9;;;;;;;;;;;;;
2019/04/14 19:47:41;;;;;;;87.7;63.6;;;;;;;;;;;;;
2019/04/14 19:50:07;;;;;;;81.6;60.2;;;;;;;;;;;;;
2019/04/14 19:52:32;;;;;;;83.7;60.7;;;;;;;;;;;;;
2019/04/14 19:54:59;;;;;;;79.9;60.6;;;;;;;;;;;;;
2019/04/14 19:57:24;;;;;;;83.4;59.9;;;;;;;;;;;;;
2019/04/14 19:59:51;;;;;;;79.4;59.5;;;;;;;;;;;;;
2019/04/14 20:02:16;;;;;;;91.6;64.4;;;;;;;;;;;;;
2019/04/14 20:04:41;;;;;;;85;61;;;;;;;;;;;;;
2019/04/14 20:07:07;;;;;;;84;62.3;;;;;;;;;;;;;
2019/04/14 20:09:32;;;;;;;91;66.2;;;;;;;;;;;;;
2019/04/14 20:11:57;;;;;;;85.4;60.3;;;;;;;;;;;;;
2019/04/14 20:14:31;;;;;;;94.2;65.8;;;;;;;;;;;;;
2019/04/14 20:20:33;;;;;;;81.7;59.9;;;;;;;;;;;;;
2019/04/14 20:21:29;;;;;;;84.5;61.5;;;;;;;;;;;;;
2019/04/14 20:28:31;;;;;;;86.2;62.2;;;;;;;;;;;;;
2019/04/14 20:30:39;;;;;;;86.2;62.7;;;;;;;;;;;;;
2019/04/14 20:32:58;;;;;;;76.9;57.5;;;;;;;;;;;;;
2019/04/14 20:35:24;;;;;;;79.6;58.8;;;;;;;;;;;;;
2019/04/14 20:37:49;;;;;;;84.1;61.2;;;;;;;;;;;;;
2019/04/14 20:40:16;;;;;;;85.2;61.6;;;;;;;;;;;;;
2019/04/14 20:42:41;;;;;;;83.4;60.2;;;;;;;;;;;;;
2019/04/14 20:45:07;;;;;;;88.2;62.5;;;;;;;;;;;;;
2019/04/14 20:47:32;;;;;;;91.1;65.9;;;;;;;;;;;;;
2019/04/14 20:49:57;;;;;;;79.1;59.8;;;;;;;;;;;;;
2019/04/14 20:52:22;;;;;;;88.1;62.9;;;;;;;;;;;;;
2019/04/14 20:54:47;;;;;;;89.3;62.7;;;;;;;;;;;;;
2019/04/14 20:57:12;;;;;;;84.7;60.6;;;;;;;;;;;;;
2019/04/14 20:59:37;;;;;;;85;61;;;;;;;;;;;;;
2019/04/14 21:02:19;;;;;;;83;60.2;;;;;;;;;;;;;
2019/04/14 21:04:37;;;;;;;85.2;60.1;;;;;;;;;;;;;
2019/04/14 21:11:09;;;;;;;83.5;61.4;;;;;;;;;;;;;
2019/04/14 21:13:04;;;;;;;92.1;63.8;;;;;;;;;;;;;
2019/04/14 21:14:30;;;;;;;86.1;62.3;;;;;;;;;;;;;
2019/04/14 21:17:15;;;;;;;85.3;61.7;;;;;;;;;;;;;
2019/04/14 21:19:07;;;;;;;87.8;62.1;;;;;;;;;;;;;
2019/04/14 21:21:28;;;;;;;87.6;62.2;;;;;;;;;;;;;
2019/04/14 21:24:31;;;;;;;87.9;63.5;;;;;;;;;;;;;
2019/04/14 21:27:19;;;;;;;81.2;59.8;;;;;;;;;;;;;
2019/04/14 21:31:50;;;;;;;79;58.7;;;;;;;;;;;;;
2019/04/14 21:34:45;;;;;;;80.1;58.9;;;;;;;;;;;;;
2019/04/14 21:37:23;;;;;;;81.4;59.6;;;;;;;;;;;;;
2019/04/14 21:39:18;;;;;;;82.6;59.2;;;;;;;;;;;;;
2019/04/14 21:41:30;;;;;;;94;69.2;;;;;;;;;;;;;
2019/04/14 21:43:54;;;;;;;73.3;55.2;;;;;;;;;;;;;
2019/04/14 21:46:19;;;;;;;79.7;57.5;;;;;;;;;;;;;
2019/04/14 21:48:45;;;;;;;77.6;56.7;;;;;;;;;;;;;
2019/04/14 21:51:10;;;;;;;76.4;56.6;;;;;;;;;;;;;
2019/04/14 21:53:35;;;;;;;77.4;57.4;;;;;;;;;;;;;
2019/04/14 21:56:00;;;;;;;75.8;56.5;;;;;;;;;;;;;
2019/04/14 22:04:04;;;;;;;79.9;57.9;;;;;;;;;;;;;
2019/04/14 22:06:31;;;;;;;77.5;56.3;;;;;;;;;;;;;
2019/04/14 22:08:52;;;;;;;82.3;58.8;;;;;;;;;;;;;
2019/04/14 22:11:16;;;;;;;82.3;57.9;;;;;;;;;;;;;
2019/04/14 22:13:38;;;;;;;83;58.4;;;;;;;;;;;;;
